Hovedside
METAR-TAF:

METAR-TAF

Lufthavner :

Sundsvall Timrå lufthavn

Sundsvall-Härnösand, Sverige

breddegrad: 62-32N, lengdegrad: 017-27E, høyde over havet: 4 m

Gjeldene værobservasjon

Denne rapporten ble laget for 24 minutter siden, klokken 03:20 UTC
Vind 10 kt fra Sørøst
Temperatur 15°C
Luftfuktighet 100%
Trykk 1003 hPa
Sikt 10 km eller mer

METAR: ESNN 180320Z AUTO 13010KT 9999 OVC006/// 15/15 Q1003

Tid: 05:44 (03:44 UTC)

Varsel

Denne rapporten ble laget for 7 timer og 14 minutter siden, klokken 20:30 UTC
Varsel gyldig fra 17. klokken 21 UTC til 17. klokken 23 UTC
Vind 8 kt fra Sør-sørøst
Sikt 10 km eller mer
Spredte skyer i en høyde av 3500 ft
Brutte skyer i en høyde av 5000 ft
lett regn
Sannsynlighet 40%
fra 17. klokken 21 UTC til 17. klokken 23 UTC
Brutte skyer i en høyde av 1300 ft
regn

TAF: ESNN 172030Z 1721/1723 15008KT 9999 -RA SCT035 BKN050 PROB40 1721/1723 RA BKN013

Værobservasjoner og værvarsel for over 4000 flyplasser (METAR- og TAF-rapporter).

Tilgjengelige stasjoner er representert av de røde og gule prikkene på kartet.

Hold musepekeren over prikken for å se navnet på stasjonen.

Klikk så for å se værobservasjoner og -varsler.

For å forandre kartet kan du klikke på den grønne knappen med svart kryss for å zoome inn, på den grønne knappen med strek for å zoome ut, eller på de grønne pilene for å se tilstøtende kart.


METAR-TAF: